GCALM FACT-FACT
Flight info
| Callsign | GCALM |
|---|---|
| Flight time | 0h 7m |
| Altitude | 2000 |
| Route | VFR CIRCUITS |
| Aircraft | P28R/L-SDGRY/S |
Departure
| Time | 2026-05-06 18:43 |
|---|---|
| Airport | Cape Town International Airport (FACT) |
Arrival
| Time | 2026-05-06 18:51 |
|---|---|
| Airport | Cape Town International Airport (FACT) |
| Time | Latitude | Longitude | Altitude | Speed | Heading |
|---|---|---|---|---|---|
| 2026-05-06 18:24 | -33.97823 | 18.59595 | 203 ft | 0 kts | 68° |
| 2026-05-06 18:34 | -33.97823 | 18.59598 | 149 ft | 3 kts | 119° |
| 2026-05-06 18:34 | -33.97850 | 18.59586 | 149 ft | 7 kts | 170° |
| 2026-05-06 18:34 | -33.97902 | 18.59630 | 149 ft | 10 kts | 95° |
| 2026-05-06 18:34 | -33.97888 | 18.59690 | 149 ft | 11 kts | 69° |
| 2026-05-06 18:35 | -33.97885 | 18.59700 | 149 ft | 12 kts | 68° |
| 2026-05-06 18:35 | -33.97855 | 18.59808 | 149 ft | 9 kts | 69° |
| 2026-05-06 18:35 | -33.97832 | 18.59885 | 149 ft | 13 kts | 71° |
| 2026-05-06 18:35 | -33.97801 | 18.59991 | 149 ft | 17 kts | 72° |
| 2026-05-06 18:36 | -33.97764 | 18.60112 | 149 ft | 5 kts | 76° |
| 2026-05-06 18:36 | -33.97763 | 18.60115 | 149 ft | 0 kts | 75° |
| 2026-05-06 18:36 | -33.97747 | 18.60167 | 149 ft | 10 kts | 71° |
| 2026-05-06 18:37 | -33.97692 | 18.60179 | 149 ft | 14 kts | 347° |
| 2026-05-06 18:37 | -33.97620 | 18.60149 | 149 ft | 17 kts | 338° |
| 2026-05-06 18:37 | -33.97474 | 18.60074 | 149 ft | 17 kts | 351° |
| 2026-05-06 18:37 | -33.97365 | 18.60038 | 149 ft | 12 kts | 342° |
| 2026-05-06 18:38 | -33.97312 | 18.60021 | 149 ft | 13 kts | 345° |
| 2026-05-06 18:38 | -33.97218 | 18.59992 | 149 ft | 15 kts | 348° |
| 2026-05-06 18:38 | -33.97100 | 18.59959 | 149 ft | 11 kts | 8° |
| 2026-05-06 18:38 | -33.97056 | 18.60008 | 149 ft | 8 kts | 86° |
| 2026-05-06 18:39 | -33.97066 | 18.60063 | 149 ft | 5 kts | 106° |
| 2026-05-06 18:39 | -33.97082 | 18.60135 | 149 ft | 11 kts | 107° |
| 2026-05-06 18:39 | -33.97090 | 18.60168 | 149 ft | 0 kts | 108° |
| 2026-05-06 18:42 | -33.97091 | 18.60170 | 149 ft | 2 kts | 107° |
| 2026-05-06 18:42 | -33.97106 | 18.60230 | 149 ft | 12 kts | 104° |
| 2026-05-06 18:42 | -33.97132 | 18.60328 | 150 ft | 12 kts | 111° |
| 2026-05-06 18:42 | -33.97258 | 18.60413 | 148 ft | 47 kts | 163° |
| 2026-05-06 18:43 | -33.97677 | 18.60540 | 298 ft | 73 kts | 162° |
| 2026-05-06 18:43 | -33.98184 | 18.60678 | 657 ft | 74 kts | 163° |
| 2026-05-06 18:43 | -33.98684 | 18.60822 | 976 ft | 78 kts | 162° |
| 2026-05-06 18:43 | -33.99219 | 18.60918 | 1322 ft | 79 kts | 182° |
| 2026-05-06 18:44 | -33.99664 | 18.60347 | 1512 ft | 118 kts | 237° |
| 2026-05-06 18:44 | -33.99948 | 18.59402 | 1758 ft | 125 kts | 238° |
| 2026-05-06 18:44 | -34.00244 | 18.58385 | 1961 ft | 130 kts | 239° |
| 2026-05-06 18:44 | -34.00495 | 18.57335 | 2073 ft | 133 kts | 244° |
| 2026-05-06 18:45 | -34.00388 | 18.56178 | 2117 ft | 149 kts | 289° |
| 2026-05-06 18:45 | -33.99639 | 18.55358 | 2281 ft | 145 kts | 332° |
| 2026-05-06 18:45 | -33.98705 | 18.54876 | 2357 ft | 148 kts | 343° |
| 2026-05-06 18:45 | -33.97717 | 18.54526 | 2413 ft | 144 kts | 352° |
| 2026-05-06 18:46 | -33.96771 | 18.54253 | 2501 ft | 138 kts | 352° |
| 2026-05-06 18:46 | -33.95834 | 18.53934 | 2417 ft | 145 kts | 341° |
| 2026-05-06 18:46 | -33.94879 | 18.53520 | 2307 ft | 149 kts | 347° |
| 2026-05-06 18:46 | -33.93882 | 18.53407 | 2132 ft | 134 kts | 21° |
| 2026-05-06 18:47 | -33.93236 | 18.53951 | 1977 ft | 100 kts | 65° |
| 2026-05-06 18:47 | -33.92873 | 18.54590 | 1980 ft | 93 kts | 77° |
| 2026-05-06 18:47 | -33.92578 | 18.55285 | 2031 ft | 89 kts | 83° |
| 2026-05-06 18:47 | -33.92361 | 18.55978 | 2050 ft | 90 kts | 87° |
| 2026-05-06 18:48 | -33.92213 | 18.56735 | 1991 ft | 96 kts | 92° |
| 2026-05-06 18:48 | -33.92135 | 18.57561 | 1754 ft | 102 kts | 104° |
| 2026-05-06 18:48 | -33.92287 | 18.58264 | 1578 ft | 73 kts | 126° |
| 2026-05-06 18:48 | -33.92563 | 18.58711 | 1353 ft | 61 kts | 139° |
| 2026-05-06 18:49 | -33.92957 | 18.58998 | 1133 ft | 76 kts | 154° |
| 2026-05-06 18:49 | -33.93432 | 18.59192 | 905 ft | 66 kts | 163° |
| 2026-05-06 18:49 | -33.93826 | 18.59316 | 832 ft | 57 kts | 163° |
| 2026-05-06 18:49 | -33.94216 | 18.59440 | 737 ft | 57 kts | 160° |
| 2026-05-06 18:50 | -33.94617 | 18.59566 | 650 ft | 62 kts | 161° |
| 2026-05-06 18:50 | -33.95013 | 18.59692 | 544 ft | 56 kts | 160° |
| 2026-05-06 18:50 | -33.95390 | 18.59801 | 382 ft | 54 kts | 159° |
| 2026-05-06 18:50 | -33.95744 | 18.59920 | 276 ft | 51 kts | 160° |
| 2026-05-06 18:51 | -33.96083 | 18.60034 | 189 ft | 50 kts | 161° |
| 2026-05-06 18:51 | -33.96381 | 18.60130 | 160 ft | 36 kts | 159° |
| 2026-05-06 18:51 | -33.96606 | 18.60205 | 163 ft | 50 kts | 162° |
| 2026-05-06 18:51 | -33.96996 | 18.60310 | 393 ft | 67 kts | 162° |
| 2026-05-06 18:52 | -33.97486 | 18.60466 | 691 ft | 75 kts | 162° |
| 2026-05-06 18:52 | -33.98041 | 18.60624 | 935 ft | 87 kts | 163° |
| 2026-05-06 18:52 | -33.98660 | 18.60815 | 1224 ft | 93 kts | 162° |
| 2026-05-06 18:52 | -33.99120 | 18.61283 | 1570 ft | 101 kts | 111° |
| 2026-05-06 18:53 | -33.98947 | 18.62170 | 1531 ft | 118 kts | 72° |
| 2026-05-06 18:53 | -33.98511 | 18.62945 | 1337 ft | 102 kts | 71° |
| 2026-05-06 18:53 | -33.98216 | 18.63656 | 1334 ft | 93 kts | 85° |
| 2026-05-06 18:53 | -33.98105 | 18.64432 | 1350 ft | 91 kts | 101° |
| 2026-05-06 18:54 | -33.98135 | 18.65186 | 1410 ft | 87 kts | 107° |
| 2026-05-06 18:54 | -33.97944 | 18.65913 | 1448 ft | 114 kts | 52° |
| 2026-05-06 18:54 | -33.97026 | 18.66073 | 1321 ft | 142 kts | 6° |
| 2026-05-06 18:54 | -33.96058 | 18.65971 | 1290 ft | 138 kts | 3° |
| 2026-05-06 18:55 | -33.95141 | 18.65793 | 1389 ft | 130 kts | 353° |
| 2026-05-06 18:55 | -33.94263 | 18.65560 | 1388 ft | 129 kts | 350° |
| 2026-05-06 18:55 | -33.93388 | 18.65264 | 1385 ft | 129 kts | 351° |
| 2026-05-06 18:55 | -33.92548 | 18.64936 | 1413 ft | 124 kts | 338° |
| 2026-05-06 18:56 | -33.91952 | 18.64251 | 1416 ft | 117 kts | 283° |
| 2026-05-06 18:56 | -33.91734 | 18.63332 | 1378 ft | 114 kts | 268° |
| 2026-05-06 18:56 | -33.91595 | 18.62381 | 1311 ft | 113 kts | 259° |
| 2026-05-06 18:56 | -33.91556 | 18.61468 | 1317 ft | 106 kts | 256° |
| 2026-05-06 18:57 | -33.91638 | 18.60615 | 1294 ft | 102 kts | 243° |
| 2026-05-06 18:57 | -33.91855 | 18.59820 | 1252 ft | 95 kts | 224° |
| 2026-05-06 18:57 | -33.92227 | 18.59239 | 1180 ft | 82 kts | 201° |
| 2026-05-06 18:57 | -33.92671 | 18.59010 | 970 ft | 63 kts | 170° |
| 2026-05-06 18:58 | -33.93078 | 18.59072 | 872 ft | 59 kts | 164° |
| 2026-05-06 18:58 | -33.93450 | 18.59193 | 829 ft | 57 kts | 161° |
| 2026-05-06 18:58 | -33.93839 | 18.59332 | 786 ft | 58 kts | 167° |
| 2026-05-06 18:58 | -33.94252 | 18.59451 | 677 ft | 68 kts | 159° |
| 2026-05-06 18:59 | -33.94704 | 18.59602 | 560 ft | 65 kts | 160° |
| 2026-05-06 18:59 | -33.95107 | 18.59725 | 452 ft | 57 kts | 158° |
| 2026-05-06 18:59 | -33.95475 | 18.59841 | 356 ft | 51 kts | 158° |
| 2026-05-06 18:59 | -33.95807 | 18.59946 | 263 ft | 47 kts | 157° |
| 2026-05-06 19:00 | -33.96126 | 18.60049 | 202 ft | 49 kts | 160° |
| 2026-05-06 19:00 | -33.96402 | 18.60138 | 150 ft | 32 kts | 160° |
| 2026-05-06 19:00 | -33.96717 | 18.60228 | 251 ft | 61 kts | 160° |
| 2026-05-06 19:00 | -33.97168 | 18.60370 | 523 ft | 75 kts | 161° |
| 2026-05-06 19:01 | -33.97722 | 18.60544 | 797 ft | 92 kts | 162° |
| 2026-05-06 19:01 | -33.98390 | 18.60671 | 1049 ft | 97 kts | 167° |
| 2026-05-06 19:01 | -33.99061 | 18.60819 | 1305 ft | 99 kts | 161° |
| 2026-05-06 19:01 | -33.99514 | 18.61408 | 1603 ft | 103 kts | 118° |
| 2026-05-06 19:02 | -33.99701 | 18.62314 | 1493 ft | 131 kts | 98° |
| 2026-05-06 19:02 | -33.99662 | 18.63326 | 1521 ft | 116 kts | 97° |
| 2026-05-06 19:02 | -33.99608 | 18.64307 | 1491 ft | 111 kts | 95° |
| 2026-05-06 19:02 | -33.99481 | 18.65229 | 1429 ft | 117 kts | 91° |
| 2026-05-06 19:03 | -33.99090 | 18.66106 | 1441 ft | 129 kts | 54° |
| 2026-05-06 19:03 | -33.98222 | 18.66441 | 1517 ft | 141 kts | 7° |
| 2026-05-06 19:03 | -33.97223 | 18.66274 | 1478 ft | 151 kts | 351° |
| 2026-05-06 19:03 | -33.96217 | 18.65864 | 1482 ft | 152 kts | 345° |
| 2026-05-06 19:04 | -33.95182 | 18.65502 | 1451 ft | 155 kts | 349° |
| 2026-05-06 19:04 | -33.94160 | 18.65205 | 1522 ft | 147 kts | 352° |
| 2026-05-06 19:04 | -33.93167 | 18.64840 | 1479 ft | 154 kts | 337° |
| 2026-05-06 19:04 | -33.92319 | 18.64073 | 1413 ft | 151 kts | 301° |
| 2026-05-06 19:05 | -33.91506 | 18.63296 | 1395 ft | 151 kts | 334° |
| 2026-05-06 19:05 | -33.90579 | 18.62886 | 1591 ft | 130 kts | 9° |
| 2026-05-06 19:05 | -33.89994 | 18.63515 | 1362 ft | 117 kts | 94° |
| 2026-05-06 19:05 | -33.90365 | 18.63999 | 1485 ft | 96 kts | 189° |
| 2026-05-06 19:06 | -33.90438 | 18.63086 | 1468 ft | 149 kts | 301° |
| 2026-05-06 19:06 | -33.89546 | 18.62849 | 1486 ft | 125 kts | 43° |
| 2026-05-06 19:06 | -33.89276 | 18.63476 | 1495 ft | 82 kts | 116° |
| 2026-05-06 19:06 | -33.89546 | 18.63761 | 1515 ft | 75 kts | 163° |
| 2026-05-06 19:07 | -33.90034 | 18.63435 | 1489 ft | 105 kts | 220° |
| 2026-05-06 19:07 | -33.90471 | 18.62589 | 1461 ft | 124 kts | 226° |
| 2026-05-06 19:07 | -33.90969 | 18.61701 | 1410 ft | 129 kts | 226° |
| 2026-05-06 19:07 | -33.91384 | 18.60799 | 1320 ft | 117 kts | 224° |
| 2026-05-06 19:08 | -33.91878 | 18.60051 | 1198 ft | 107 kts | 211° |
| 2026-05-06 19:08 | -33.92437 | 18.59559 | 1055 ft | 99 kts | 197° |
| 2026-05-06 19:08 | -33.93000 | 18.59314 | 909 ft | 79 kts | 184° |
| 2026-05-06 19:08 | -33.93466 | 18.59257 | 775 ft | 55 kts | 168° |
| 2026-05-06 19:09 | -33.93790 | 18.59287 | 724 ft | 48 kts | 159° |
| 2026-05-06 19:09 | -33.94130 | 18.59407 | 680 ft | 55 kts | 157° |
| 2026-05-06 19:09 | -33.94532 | 18.59537 | 586 ft | 65 kts | 160° |
| 2026-05-06 19:09 | -33.94971 | 18.59679 | 508 ft | 65 kts | 160° |
| 2026-05-06 19:10 | -33.95429 | 18.59829 | 346 ft | 72 kts | 162° |
| 2026-05-06 19:10 | -33.95876 | 18.59970 | 214 ft | 55 kts | 161° |
| 2026-05-06 19:10 | -33.96190 | 18.60064 | 158 ft | 37 kts | 160° |
| 2026-05-06 19:10 | -33.96438 | 18.60149 | 179 ft | 51 kts | 161° |
| 2026-05-06 19:11 | -33.96821 | 18.60253 | 425 ft | 64 kts | 163° |
| 2026-05-06 19:11 | -33.97265 | 18.60383 | 714 ft | 67 kts | 161° |
| 2026-05-06 19:11 | -33.97777 | 18.60540 | 914 ft | 85 kts | 163° |
| 2026-05-06 19:11 | -33.98370 | 18.60699 | 1130 ft | 90 kts | 165° |
| 2026-05-06 19:12 | -33.99028 | 18.60736 | 1267 ft | 101 kts | 176° |
| 2026-05-06 19:12 | -33.99783 | 18.60690 | 1237 ft | 113 kts | 172° |
| 2026-05-06 19:12 | -34.00521 | 18.60243 | 1136 ft | 138 kts | 221° |
| 2026-05-06 19:12 | -34.00776 | 18.59187 | 1370 ft | 135 kts | 258° |
| 2026-05-06 19:13 | -34.00692 | 18.58031 | 1401 ft | 140 kts | 269° |
| 2026-05-06 19:13 | -34.00461 | 18.56879 | 1462 ft | 145 kts | 281° |
| 2026-05-06 19:13 | -34.00139 | 18.55710 | 1485 ft | 147 kts | 281° |
| 2026-05-06 19:13 | -33.99944 | 18.54504 | 1465 ft | 147 kts | 265° |
| 2026-05-06 19:14 | -33.99926 | 18.53285 | 1446 ft | 144 kts | 258° |
| 2026-05-06 19:14 | -34.00009 | 18.52096 | 1495 ft | 139 kts | 248° |
| 2026-05-06 19:14 | -34.00194 | 18.50956 | 1499 ft | 140 kts | 245° |
| 2026-05-06 19:14 | -34.00359 | 18.49797 | 1449 ft | 143 kts | 250° |
| 2026-05-06 19:15 | -34.00501 | 18.48629 | 1343 ft | 144 kts | 251° |
| 2026-05-06 19:15 | -34.00672 | 18.47447 | 1267 ft | 143 kts | 249° |
| 2026-05-06 19:15 | -34.00909 | 18.46293 | 1317 ft | 142 kts | 245° |
| 2026-05-06 19:15 | -34.01114 | 18.45145 | 1466 ft | 142 kts | 252° |
| 2026-05-06 19:16 | -34.01196 | 18.43981 | 1704 ft | 135 kts | 258° |
| 2026-05-06 19:16 | -34.01159 | 18.42839 | 1903 ft | 137 kts | 262° |
| 2026-05-06 19:16 | -34.01113 | 18.41641 | 1935 ft | 147 kts | 266° |
| 2026-05-06 19:16 | -34.01054 | 18.40458 | 1722 ft | 143 kts | 259° |
| 2026-05-06 19:17 | -34.01091 | 18.39351 | 1679 ft | 123 kts | 248° |
| 2026-05-06 19:17 | -34.01266 | 18.38311 | 1714 ft | 130 kts | 244° |
| 2026-05-06 19:17 | -34.01474 | 18.37262 | 1907 ft | 133 kts | 252° |
| 2026-05-06 19:17 | -34.01406 | 18.36105 | 2116 ft | 143 kts | 276° |
| 2026-05-06 19:18 | -34.00982 | 18.35061 | 2425 ft | 140 kts | 304° |
| 2026-05-06 19:18 | -34.00251 | 18.34257 | 2354 ft | 152 kts | 340° |
| 2026-05-06 19:18 | -33.99213 | 18.34109 | 2355 ft | 147 kts | 1° |
| 2026-05-06 19:18 | -33.98433 | 18.33284 | 2273 ft | 150 kts | 282° |
| 2026-05-06 19:19 | -33.98651 | 18.32293 | 2444 ft | 116 kts | 217° |
| 2026-05-06 19:19 | -33.99237 | 18.31655 | 2509 ft | 116 kts | 210° |
| 2026-05-06 19:19 | -33.99830 | 18.30973 | 2603 ft | 119 kts | 212° |
| 2026-05-06 19:19 | -34.00367 | 18.30217 | 2692 ft | 127 kts | 227° |
| 2026-05-06 19:20 | -34.00582 | 18.29062 | 2456 ft | 160 kts | 265° |
| 2026-05-06 19:20 | -34.00135 | 18.27785 | 2218 ft | 172 kts | 311° |
| 2026-05-06 19:20 | -33.99194 | 18.27046 | 2098 ft | 152 kts | 336° |
| 2026-05-06 19:20 | -33.98232 | 18.26717 | 2107 ft | 129 kts | 7° |
| 2026-05-06 19:21 | -33.97450 | 18.27038 | 2046 ft | 114 kts | 49° |
| 2026-05-06 19:21 | -33.96850 | 18.27612 | 2022 ft | 110 kts | 56° |
| 2026-05-06 19:21 | -33.96272 | 18.28197 | 1989 ft | 109 kts | 54° |
| 2026-05-06 19:21 | -33.95678 | 18.28810 | 1945 ft | 110 kts | 55° |
| 2026-05-06 19:22 | -33.95302 | 18.29386 | 2123 ft | 55 kts | 126° |
| 2026-05-06 19:22 | -33.95717 | 18.29413 | 2041 ft | 68 kts | 169° |
| 2026-05-06 19:22 | -33.96192 | 18.29514 | 2010 ft | 70 kts | 158° |
| 2026-05-06 19:22 | -33.96674 | 18.29694 | 2001 ft | 74 kts | 155° |
| 2026-05-06 19:23 | -33.97155 | 18.29944 | 1989 ft | 77 kts | 151° |
| 2026-05-06 19:23 | -33.97620 | 18.30226 | 2032 ft | 74 kts | 149° |
| 2026-05-06 19:23 | -33.98084 | 18.30510 | 2032 ft | 76 kts | 150° |
| 2026-05-06 19:23 | -33.98558 | 18.30794 | 2039 ft | 77 kts | 150° |
| 2026-05-06 19:24 | -33.99096 | 18.31079 | 2036 ft | 93 kts | 153° |
| 2026-05-06 19:24 | -33.99448 | 18.31554 | 2110 ft | 115 kts | 55° |
| 2026-05-06 19:24 | -33.98590 | 18.31196 | 2167 ft | 140 kts | 328° |
| 2026-05-06 19:24 | -33.97893 | 18.30360 | 2246 ft | 142 kts | 307° |
| 2026-05-06 19:25 | -33.97192 | 18.29572 | 2375 ft | 136 kts | 353° |
| 2026-05-06 19:25 | -33.96668 | 18.30146 | 2302 ft | 112 kts | 80° |
| 2026-05-06 19:25 | -33.96482 | 18.31043 | 2266 ft | 108 kts | 95° |
| 2026-05-06 19:25 | -33.96519 | 18.31921 | 2201 ft | 110 kts | 101° |
| 2026-05-06 19:26 | -33.96558 | 18.32809 | 2129 ft | 109 kts | 114° |
| 2026-05-06 19:26 | -33.96846 | 18.33653 | 2061 ft | 110 kts | 122° |
| 2026-05-06 19:26 | -33.97158 | 18.34466 | 2067 ft | 113 kts | 94° |
| 2026-05-06 19:26 | -33.96254 | 18.34426 | 1735 ft | 165 kts | 320° |
| 2026-05-06 19:27 | -33.95704 | 18.33368 | 1813 ft | 147 kts | 269° |
| 2026-05-06 19:27 | -33.95565 | 18.32147 | 2035 ft | 146 kts | 270° |
| 2026-05-06 19:27 | -33.95427 | 18.30934 | 2208 ft | 148 kts | 269° |
| 2026-05-06 19:27 | -33.95302 | 18.29683 | 2287 ft | 155 kts | 268° |
| 2026-05-06 19:28 | -33.94846 | 18.28631 | 2377 ft | 156 kts | 359° |
| 2026-05-06 19:28 | -33.93943 | 18.29129 | 2285 ft | 135 kts | 58° |
| 2026-05-06 19:28 | -33.93510 | 18.30060 | 2065 ft | 133 kts | 81° |
| 2026-05-06 19:28 | -33.93283 | 18.31053 | 2109 ft | 117 kts | 90° |
| 2026-05-06 19:29 | -33.93308 | 18.31987 | 2084 ft | 108 kts | 115° |
| 2026-05-06 19:29 | -33.93661 | 18.32753 | 2082 ft | 104 kts | 127° |
| 2026-05-06 19:29 | -33.94046 | 18.33421 | 2545 ft | 87 kts | 128° |
| 2026-05-06 19:29 | -33.94393 | 18.34015 | 2899 ft | 87 kts | 131° |
| 2026-05-06 19:30 | -33.94790 | 18.34599 | 3175 ft | 92 kts | 134° |
| 2026-05-06 19:30 | -33.95157 | 18.35224 | 3476 ft | 95 kts | 123° |
| 2026-05-06 19:30 | -33.95349 | 18.36015 | 3772 ft | 98 kts | 104° |
| 2026-05-06 19:30 | -33.95266 | 18.36856 | 4035 ft | 110 kts | 91° |
| 2026-05-06 19:31 | -33.95043 | 18.37835 | 4088 ft | 130 kts | 80° |
| 2026-05-06 19:31 | -33.94678 | 18.38894 | 4085 ft | 133 kts | 90° |
| 2026-05-06 19:31 | -33.95635 | 18.40026 | 4094 ft | 131 kts | 199° |
| 2026-05-06 19:32 | -33.96185 | 18.39171 | 4227 ft | 150 kts | 244° |
| 2026-05-06 19:32 | -33.95947 | 18.37872 | 3905 ft | 165 kts | 299° |
| 2026-05-06 19:32 | -33.95068 | 18.37001 | 3509 ft | 165 kts | 337° |
| 2026-05-06 19:32 | -33.93963 | 18.36874 | 3067 ft | 156 kts | 23° |
| 2026-05-06 19:33 | -33.93097 | 18.37477 | 2709 ft | 137 kts | 55° |
| 2026-05-06 19:33 | -33.92694 | 18.38432 | 2116 ft | 120 kts | 94° |
| 2026-05-06 19:33 | -33.92764 | 18.39263 | 1891 ft | 85 kts | 111° |
| 2026-05-06 19:33 | -33.92945 | 18.39926 | 1642 ft | 79 kts | 127° |
| 2026-05-06 19:34 | -33.93380 | 18.40074 | 1586 ft | 80 kts | 188° |
| 2026-05-06 19:34 | -33.93844 | 18.39858 | 1752 ft | 61 kts | 143° |
| 2026-05-06 19:34 | -33.93916 | 18.40608 | 1221 ft | 111 kts | 96° |
| 2026-05-06 19:34 | -33.93840 | 18.41449 | 1177 ft | 97 kts | 93° |
| 2026-05-06 19:35 | -33.93773 | 18.42226 | 1194 ft | 87 kts | 97° |
| 2026-05-06 19:35 | -33.93832 | 18.42932 | 1144 ft | 84 kts | 111° |
| 2026-05-06 19:35 | -33.93934 | 18.43664 | 1130 ft | 95 kts | 102° |
| 2026-05-06 19:35 | -33.93905 | 18.44526 | 924 ft | 118 kts | 89° |
| 2026-05-06 19:36 | -33.93992 | 18.45389 | 895 ft | 98 kts | 123° |
| 2026-05-06 19:36 | -33.94456 | 18.45924 | 894 ft | 95 kts | 159° |
| 2026-05-06 19:36 | -33.94991 | 18.46226 | 1028 ft | 75 kts | 153° |
| 2026-05-06 19:36 | -33.95561 | 18.46391 | 917 ft | 84 kts | 163° |
| 2026-05-06 19:37 | -33.95994 | 18.46784 | 998 ft | 73 kts | 150° |
| 2026-05-06 19:37 | -33.96438 | 18.47118 | 1025 ft | 73 kts | 152° |
| 2026-05-06 19:37 | -33.96887 | 18.47380 | 1104 ft | 73 kts | 153° |
| 2026-05-06 19:37 | -33.97386 | 18.47618 | 1220 ft | 84 kts | 163° |
| 2026-05-06 19:38 | -33.97970 | 18.47777 | 1279 ft | 86 kts | 162° |
| 2026-05-06 19:38 | -33.98501 | 18.47999 | 1301 ft | 77 kts | 150° |
| 2026-05-06 19:38 | -33.98943 | 18.48339 | 1343 ft | 76 kts | 139° |
| 2026-05-06 19:38 | -33.99301 | 18.48745 | 1432 ft | 67 kts | 133° |
| 2026-05-06 19:39 | -33.99480 | 18.49383 | 1230 ft | 89 kts | 111° |
| 2026-05-06 19:39 | -33.99583 | 18.50140 | 1123 ft | 92 kts | 109° |
| 2026-05-06 19:39 | -33.99567 | 18.50908 | 1114 ft | 96 kts | 89° |
| 2026-05-06 19:39 | -33.99126 | 18.51521 | 1244 ft | 102 kts | 53° |
| 2026-05-06 19:40 | -33.98494 | 18.52004 | 1452 ft | 110 kts | 43° |
| 2026-05-06 19:40 | -33.97774 | 18.52551 | 1408 ft | 133 kts | 41° |
| 2026-05-06 19:40 | -33.96970 | 18.53142 | 1498 ft | 135 kts | 45° |
| 2026-05-06 19:40 | -33.96159 | 18.53735 | 1548 ft | 142 kts | 36° |
| 2026-05-06 19:41 | -33.95196 | 18.54124 | 1545 ft | 151 kts | 19° |
| 2026-05-06 19:41 | -33.94144 | 18.54066 | 1576 ft | 151 kts | 357° |
| 2026-05-06 19:41 | -33.93161 | 18.54156 | 1416 ft | 133 kts | 34° |
| 2026-05-06 19:41 | -33.92610 | 18.54796 | 1423 ft | 98 kts | 79° |
| 2026-05-06 19:42 | -33.92399 | 18.55559 | 1332 ft | 93 kts | 94° |
| 2026-05-06 19:42 | -33.92308 | 18.56328 | 1253 ft | 92 kts | 96° |
| 2026-05-06 19:42 | -33.92250 | 18.57101 | 1219 ft | 86 kts | 97° |
| 2026-05-06 19:42 | -33.92247 | 18.57795 | 1158 ft | 81 kts | 114° |
| 2026-05-06 19:43 | -33.92425 | 18.58420 | 1061 ft | 80 kts | 129° |
| 2026-05-06 19:43 | -33.92834 | 18.58863 | 994 ft | 80 kts | 149° |
| 2026-05-06 19:43 | -33.93341 | 18.59162 | 876 ft | 85 kts | 158° |
| 2026-05-06 19:43 | -33.93913 | 18.59366 | 710 ft | 85 kts | 160° |
| 2026-05-06 19:44 | -33.94431 | 18.59518 | 610 ft | 70 kts | 159° |
| 2026-05-06 19:44 | -33.94894 | 18.59667 | 484 ft | 65 kts | 155° |
| 2026-05-06 19:44 | -33.95312 | 18.59796 | 382 ft | 62 kts | 157° |
| 2026-05-06 19:44 | -33.95712 | 18.59914 | 287 ft | 57 kts | 158° |
| 2026-05-06 19:45 | -33.96092 | 18.60039 | 203 ft | 58 kts | 161° |
| 2026-05-06 19:45 | -33.96452 | 18.60152 | 156 ft | 42 kts | 160° |
| 2026-05-06 19:45 | -33.96683 | 18.60229 | 152 ft | 30 kts | 163° |
| 2026-05-06 19:45 | -33.96870 | 18.60287 | 153 ft | 27 kts | 167° |
| 2026-05-06 19:46 | -33.97046 | 18.60343 | 153 ft | 28 kts | 166° |
| 2026-05-06 19:46 | -33.97257 | 18.60412 | 148 ft | 39 kts | 161° |
| 2026-05-06 19:46 | -33.97506 | 18.60490 | 147 ft | 34 kts | 166° |
| 2026-05-06 19:46 | -33.97709 | 18.60551 | 149 ft | 26 kts | 166° |
| 2026-05-06 19:47 | -33.97789 | 18.60511 | 149 ft | 15 kts | 282° |
| 2026-05-06 19:47 | -33.97763 | 18.60388 | 148 ft | 15 kts | 284° |
| 2026-05-06 19:47 | -33.97735 | 18.60264 | 149 ft | 16 kts | 283° |
| 2026-05-06 19:47 | -33.97754 | 18.60149 | 149 ft | 14 kts | 248° |
| 2026-05-06 19:48 | -33.97785 | 18.60045 | 149 ft | 13 kts | 253° |
| 2026-05-06 19:48 | -33.97815 | 18.59942 | 149 ft | 13 kts | 252° |
| 2026-05-06 19:48 | -33.97845 | 18.59842 | 149 ft | 13 kts | 250° |
| 2026-05-06 19:48 | -33.97874 | 18.59745 | 149 ft | 12 kts | 249° |
| 2026-05-06 19:49 | -33.97902 | 18.59651 | 149 ft | 12 kts | 251° |
| 2026-05-06 19:49 | -33.97860 | 18.59588 | 149 ft | 9 kts | 342° |
| 2026-05-06 19:49 | -33.97824 | 18.59582 | 149 ft | 1 kts | 66° |
| 2026-05-06 19:49 | -33.97809 | 18.59588 | 149 ft | 2 kts | 344° |
| 2026-05-06 19:50 | -33.97807 | 18.59588 | 149 ft | 0 kts | 340° |